Time;durP1;ratioP1;P1;durP2;ratioP2;P2;SDS_P1;SDS_P2;PMS_P1;PMS_P2;Temp;Humidity;BMP_temperature;BMP_pressure;BME280_temperature;BME280_humidity;BME280_pressure;Samples;Min_cycle;Max_cycle;Signal;HPM_P1;HPM_P2
2022/07/30 00:01:58;;;;;;;3.57;3.00;;;22.70;59.60;;;25.40;44.84;101617.88;5113564;28;20257;-63
2022/07/30 00:04:26;;;;;;;7.83;2.80;;;22.60;59.80;;;25.36;45.33;101627.53;5113678;28;20725;-64
2022/07/30 00:06:53;;;;;;;6.50;2.73;;;22.60;60.00;;;25.33;45.74;101619.94;5114972;28;20613;-63
2022/07/30 00:09:21;;;;;;;3.97;2.87;;;22.60;60.00;;;25.33;45.85;101621.81;5114796;28;20184;-64
2022/07/30 00:11:48;;;;;;;5.67;2.57;;;22.50;60.20;;;25.29;45.35;101621.50;5112519;28;20583;-64
2022/07/30 00:14:16;;;;;;;3.47;3.17;;;22.60;60.20;;;25.24;45.28;101617.94;5114855;28;20191;-64
2022/07/30 00:16:43;;;;;;;3.73;2.53;;;22.50;60.40;;;25.20;45.88;101622.22;5114827;28;20664;-63
2022/07/30 00:19:12;;;;;;;4.60;3.00;;;22.50;61.10;;;25.18;45.64;101608.97;5114723;28;20195;-63
2022/07/30 00:21:39;;;;;;;4.60;2.67;;;22.40;60.70;;;25.17;45.74;101611.91;5113889;28;20204;-63
2022/07/30 00:24:09;;;;;;;5.40;3.10;;;22.40;60.70;;;25.17;45.79;101609.22;5112777;28;20190;-64
2022/07/30 00:26:37;;;;;;;3.90;2.37;;;22.40;60.80;;;25.16;45.80;101608.41;5114097;27;20188;-63
2022/07/30 00:29:05;;;;;;;4.37;2.60;;;22.40;61.00;;;25.17;46.35;101612.75;5112339;28;20211;-64
2022/07/30 00:31:33;;;;;;;3.67;3.03;;;22.40;61.20;;;25.18;46.18;101611.66;5114081;28;20583;-63
2022/07/30 00:34:00;;;;;;;5.43;3.07;;;22.40;61.20;;;25.17;46.25;101607.34;5114413;28;20190;-63
2022/07/30 00:36:29;;;;;;;2.70;2.20;;;22.40;61.30;;;25.20;46.23;101601.44;5114463;28;20196;-63
2022/07/30 00:38:56;;;;;;;4.23;2.63;;;22.40;61.30;;;25.23;46.65;101602.81;5114376;28;20199;-64
2022/07/30 00:41:25;;;;;;;3.97;2.80;;;22.40;62.10;;;25.25;46.30;101601.50;5113798;28;20204;-63
2022/07/30 00:43:53;;;;;;;3.03;2.73;;;22.50;61.40;;;25.26;45.75;101594.25;5112594;28;20188;-63
2022/07/30 00:46:20;;;;;;;3.53;3.00;;;22.50;61.20;;;25.25;46.32;101601.50;5114135;28;20198;-64
2022/07/30 00:48:48;;;;;;;3.03;2.50;;;22.50;62.00;;;25.24;46.01;101597.19;5114228;28;20187;-63
2022/07/30 00:51:15;;;;;;;5.83;3.40;;;22.40;61.20;;;25.23;45.95;101595.56;5113730;28;20241;-63
2022/07/30 00:53:44;;;;;;;5.53;2.60;;;22.50;61.30;;;25.21;45.96;101594.16;5113976;28;20184;-64
2022/07/30 00:56:11;;;;;;;4.00;2.50;;;22.40;62.00;;;25.17;46.01;101585.78;5114040;28;20192;-64
2022/07/30 00:58:39;;;;;;;2.60;2.30;;;22.40;61.40;;;25.13;46.43;101590.03;5114210;28;20188;-63
2022/07/30 01:01:06;;;;;;;3.83;3.17;;;22.40;61.50;;;25.10;46.44;101585.16;5110598;28;20196;-64
2022/07/30 01:03:33;;;;;;;3.77;3.27;;;22.40;61.70;;;25.09;46.40;101585.38;5113570;28;20724;-64
2022/07/30 01:06:01;;;;;;;5.73;3.10;;;22.40;61.70;;;25.07;46.78;101579.44;5114077;28;20190;-63
2022/07/30 01:08:28;;;;;;;4.37;2.50;;;22.30;61.80;;;25.04;46.76;101585.31;5112646;28;20196;-64
2022/07/30 01:10:57;;;;;;;3.60;2.67;;;22.30;61.90;;;25.04;46.42;101580.75;5113487;28;20211;-64
2022/07/30 01:13:25;;;;;;;2.37;2.17;;;22.30;62.10;;;25.03;46.74;101581.78;5114148;28;20194;-64
2022/07/30 01:15:52;;;;;;;3.80;2.87;;;22.30;62.20;;;25.03;47.19;101573.72;5113640;28;20196;-62
2022/07/30 01:19:47;;;;;;;3.20;2.37;;;22.30;62.20;;;25.01;47.02;101573.16;5112234;28;20672;-63
2022/07/30 01:21:20;;;;;;;4.07;2.70;;;22.30;62.30;;;24.96;47.08;101567.69;5112967;28;20270;-64
2022/07/30 01:23:52;;;;;;;4.37;2.93;;;22.30;62.30;;;24.96;46.92;101562.31;5113499;28;20191;-64
2022/07/30 01:26:22;;;;;;;3.83;2.80;;;22.30;62.40;;;24.97;47.36;101558.56;5113507;28;20191;-64
2022/07/30 01:28:53;;;;;;;3.83;2.60;;;22.30;62.60;;;24.99;47.07;101561.81;5113644;28;20547;-64
2022/07/30 01:31:24;;;;;;;5.60;2.83;;;22.20;62.70;;;25.01;47.31;101554.28;5112854;28;20223;-63
2022/07/30 01:33:54;;;;;;;7.20;2.83;;;22.20;62.60;;;25.03;46.88;101554.06;5112339;28;20195;-64
2022/07/30 01:36:23;;;;;;;5.43;2.90;;;22.20;62.60;;;25.02;47.02;101545.16;5113997;28;20193;-64
2022/07/30 01:38:52;;;;;;;4.47;3.33;;;22.20;62.80;;;24.98;46.96;101554.00;5113913;28;20188;-64
2022/07/30 01:41:22;;;;;;;6.40;3.27;;;22.20;63.00;;;24.95;46.94;101555.31;5113260;28;20203;-64
2022/07/30 01:43:52;;;;;;;3.10;2.80;;;22.20;63.00;;;24.97;47.25;101553.16;5113708;28;20524;-63
2022/07/30 01:46:23;;;;;;;6.93;3.67;;;22.20;63.10;;;24.96;47.45;101548.84;5113442;28;20191;-64
2022/07/30 01:48:53;;;;;;;4.03;2.80;;;22.20;63.30;;;24.93;47.24;101548.53;5113339;28;20191;-64
2022/07/30 01:51:21;;;;;;;4.27;2.90;;;22.20;63.20;;;24.88;47.23;101543.91;5094809;28;20216;-64
2022/07/30 01:53:52;;;;;;;4.17;2.43;;;22.10;63.40;;;24.87;47.38;101544.94;5093208;28;20181;-64
2022/07/30 01:56:24;;;;;;;4.77;2.63;;;22.10;63.60;;;24.87;47.84;101539.56;5093136;28;20193;-62
2022/07/30 01:58:56;;;;;;;4.00;2.70;;;22.10;63.60;;;24.89;48.06;101537.41;5093667;28;20220;-64
2022/07/30 02:01:23;;;;;;;3.30;2.60;;;22.10;63.70;;;24.91;47.97;101531.81;5092521;28;20262;-65
2022/07/30 02:03:52;;;;;;;3.53;2.93;;;22.10;63.70;;;24.89;47.95;101540.13;5098309;28;20598;-64
2022/07/30 02:06:27;;;;;;;4.57;2.83;;;22.10;63.70;;;24.84;48.07;101538.16;5117412;28;20192;-63
2022/07/30 02:09:00;;;;;;;4.03;3.03;;;22.10;64.00;;;24.80;47.96;101536.22;5117442;28;20188;-64
2022/07/30 02:14:44;;;;;;;4.70;2.83;;;22.10;64.20;;;24.66;48.36;101533.06;5117135;28;20192;-64
2022/07/30 02:17:22;;;;;;;5.73;2.83;;;22.00;64.20;;;24.63;48.72;101530.03;5117220;28;20215;-64
2022/07/30 02:19:59;;;;;;;4.17;2.70;;;22.00;64.40;;;24.60;48.88;101533.25;5116106;28;20241;-65
2022/07/30 02:22:36;;;;;;;4.13;2.87;;;22.00;64.50;;;24.58;48.76;101540.75;5115818;28;20204;-63
2022/07/30 02:25:06;;;;;;;4.63;2.53;;;21.90;64.60;;;24.58;48.56;101535.38;5117071;28;20192;-64
2022/07/30 02:27:39;;;;;;;3.30;3.00;;;21.90;64.80;;;24.58;48.46;101538.06;5116746;28;20188;-64
2022/07/30 02:30:09;;;;;;;6.83;3.40;;;21.90;65.00;;;24.56;48.96;101529.38;5116942;28;20191;-63
2022/07/30 02:32:42;;;;;;;3.80;2.93;;;21.90;65.00;;;24.48;48.93;101536.03;5116125;28;20243;-62
2022/07/30 02:35:17;;;;;;;4.97;2.90;;;21.80;65.10;;;24.45;48.99;101535.69;5116799;28;20191;-63
2022/07/30 02:37:51;;;;;;;4.23;2.80;;;21.70;65.50;;;24.41;48.94;101531.88;5115213;27;20194;-63
2022/07/30 02:40:22;;;;;;;6.13;3.33;;;21.70;65.50;;;24.40;49.75;101532.91;5116693;28;20187;-63
2022/07/30 02:42:53;;;;;;;5.50;3.47;;;21.70;65.80;;;24.38;49.75;101532.34;5116335;28;20199;-63
2022/07/30 02:45:23;;;;;;;3.50;3.10;;;21.70;66.20;;;24.35;49.56;101532.84;5116645;28;20191;-62
2022/07/30 02:47:57;;;;;;;4.30;2.97;;;21.60;66.90;;;24.25;49.03;101538.88;5116481;28;20212;-63
2022/07/30 02:50:27;;;;;;;5.37;3.47;;;21.60;66.30;;;24.21;50.01;101535.88;5115836;28;20233;-64
2022/07/30 02:52:58;;;;;;;4.37;2.90;;;21.50;66.60;;;24.17;50.36;101532.06;5115961;28;20226;-63
2022/07/30 02:55:28;;;;;;;5.77;3.50;;;21.50;67.10;;;24.14;50.25;101532.53;5096991;28;20189;-63
2022/07/30 02:58:00;;;;;;;5.67;4.00;;;21.50;67.20;;;24.11;49.99;101538.41;5096029;28;20195;-63
2022/07/30 03:00:30;;;;;;;5.27;3.97;;;21.40;67.20;;;24.09;50.38;101540.53;5094374;28;20196;-61
2022/07/30 03:02:59;;;;;;;6.40;3.93;;;21.40;67.50;;;24.08;50.47;101540.78;5095304;28;20205;-63
2022/07/30 03:05:28;;;;;;;5.37;3.53;;;21.40;67.70;;;24.02;50.61;101542.53;5094039;28;20618;-63
2022/07/30 03:07:58;;;;;;;4.40;3.37;;;21.30;68.00;;;24.01;50.99;101538.19;5095423;28;20240;-63
2022/07/30 03:10:27;;;;;;;3.83;2.70;;;21.30;68.90;;;24.01;50.59;101540.88;5096423;28;20242;-63
2022/07/30 03:12:58;;;;;;;5.43;3.30;;;21.30;68.00;;;24.03;50.97;101532.59;5095688;28;20217;-63
2022/07/30 03:15:28;;;;;;;5.13;2.87;;;21.30;68.20;;;24.04;50.76;101537.72;5095659;28;20188;-63
2022/07/30 03:17:58;;;;;;;4.60;2.90;;;21.40;68.90;;;24.03;50.96;101541.44;5096033;28;20193;-63
2022/07/30 03:20:30;;;;;;;4.20;2.70;;;21.40;68.30;;;24.04;51.08;101536.88;5095223;28;20197;-62
2022/07/30 03:23:01;;;;;;;5.73;3.67;;;21.40;68.30;;;24.05;51.13;101543.91;5095184;28;20699;-63
2022/07/30 03:25:31;;;;;;;4.27;3.20;;;21.40;68.30;;;24.05;51.05;101544.72;5095351;28;20195;-63
2022/07/30 03:28:02;;;;;;;7.47;3.70;;;21.40;68.30;;;24.04;51.15;101543.09;5096395;28;20576;-63
2022/07/30 03:30:33;;;;;;;4.97;3.17;;;21.40;68.30;;;24.02;51.26;101534.44;5095211;28;20199;-63
2022/07/30 03:33:01;;;;;;;6.50;3.40;;;21.30;68.30;;;24.01;51.15;101538.19;5095126;28;20216;-63
2022/07/30 03:35:30;;;;;;;5.57;3.13;;;21.40;68.40;;;23.99;51.36;101534.09;5095041;28;20192;-63
2022/07/30 03:37:59;;;;;;;5.57;3.53;;;21.30;68.40;;;23.96;51.46;101546.16;5095189;28;20199;-63
2022/07/30 03:40:28;;;;;;;5.70;2.93;;;21.30;68.70;;;23.93;51.65;101541.28;5095130;28;20199;-63
2022/07/30 03:42:56;;;;;;;4.47;3.47;;;21.30;68.80;;;23.90;51.82;101547.16;5094858;28;20568;-63
2022/07/30 03:45:26;;;;;;;5.23;3.13;;;21.20;69.00;;;23.88;51.81;101543.06;5092228;28;20196;-62
2022/07/30 03:47:55;;;;;;;5.20;3.20;;;21.20;69.30;;;23.86;51.79;101546.00;5094935;28;20199;-63
2022/07/30 03:50:23;;;;;;;6.30;3.43;;;21.20;69.50;;;23.87;52.09;101542.25;5094625;28;20192;-65
2022/07/30 03:52:51;;;;;;;7.83;5.30;;;21.20;69.70;;;23.91;51.99;101547.97;5094933;28;20303;-63
2022/07/30 03:55:19;;;;;;;6.40;4.03;;;21.20;69.80;;;23.94;52.12;101552.84;5094763;28;20188;-63
2022/07/30 03:57:47;;;;;;;5.03;3.50;;;21.20;69.80;;;23.98;52.04;101538.69;5095076;28;20191;-63
2022/07/30 04:00:16;;;;;;;6.20;3.93;;;21.20;69.80;;;24.02;52.11;101539.84;5102105;28;20199;-63
2022/07/30 04:02:46;;;;;;;3.97;3.63;;;21.20;69.70;;;24.03;51.81;101541.44;5114516;28;20217;-63
2022/07/30 04:05:15;;;;;;;7.47;5.03;;;21.30;69.80;;;24.05;51.66;101536.66;5115370;27;20183;-63
2022/07/30 04:07:42;;;;;;;4.40;3.40;;;21.30;69.70;;;24.07;51.95;101542.66;5114965;28;20191;-63
2022/07/30 04:10:12;;;;;;;4.93;3.20;;;21.30;69.70;;;24.09;51.78;101542.38;5114818;28;20188;-63
2022/07/30 04:12:39;;;;;;;4.40;2.97;;;21.30;69.50;;;24.11;51.95;101554.53;5114581;28;20699;-63
2022/07/30 04:15:09;;;;;;;7.23;3.80;;;21.30;69.60;;;24.13;51.75;101546.22;5114710;28;20188;-63
2022/07/30 04:18:03;;;;;;;3.77;3.30;;;21.40;69.50;;;24.11;51.65;101554.53;5095660;28;20226;-62
2022/07/30 04:20:39;;;;;;;4.70;3.20;;;21.40;69.80;;;24.10;52.00;101552.91;5093746;28;20198;-61
2022/07/30 04:23:09;;;;;;;4.30;3.57;;;21.30;69.80;;;24.09;51.62;101556.66;5094074;28;20208;-64
2022/07/30 04:25:38;;;;;;;4.70;3.97;;;21.30;69.80;;;24.10;51.62;101558.28;5093153;28;20192;-63
2022/07/30 04:28:08;;;;;;;5.40;4.07;;;21.30;69.90;;;24.11;52.04;101559.91;5093608;28;20538;-64
2022/07/30 04:30:36;;;;;;;7.80;6.97;;;21.30;70.90;;;24.13;51.97;101563.19;5094051;28;20184;-64
2022/07/30 04:33:06;;;;;;;7.53;6.77;;;21.30;70.10;;;24.14;51.81;101562.13;5095212;28;20274;-64
2022/07/30 04:35:34;;;;;;;8.73;7.90;;;21.30;70.10;;;24.16;51.87;101565.41;5093127;28;20192;-65
2022/07/30 04:38:18;;;;;;;7.33;3.47;;;21.40;70.20;;;24.19;51.85;101566.78;5093789;28;20616;-63
2022/07/30 04:40:47;;;;;;;7.77;4.07;;;21.40;70.20;;;24.22;51.72;101561.72;5093568;28;20192;-64
2022/07/30 04:43:15;;;;;;;8.37;4.93;;;21.40;70.10;;;24.26;51.99;101561.22;5093656;28;20227;-64
2022/07/30 04:45:43;;;;;;;4.40;3.50;;;21.40;70.10;;;24.27;51.88;101562.88;5093703;28;20309;-63
2022/07/30 04:48:12;;;;;;;6.23;3.47;;;21.40;70.00;;;24.30;51.44;101562.38;5093920;28;20189;-64
2022/07/30 04:50:45;;;;;;;4.20;3.00;;;21.40;70.00;;;24.34;51.32;101579.69;5094896;28;20199;-63
2022/07/30 04:53:14;;;;;;;4.47;3.00;;;21.50;70.10;;;24.37;51.65;101573.78;5094034;28;20224;-63
2022/07/30 04:55:45;;;;;;;3.97;3.57;;;21.50;70.00;;;24.40;51.49;101574.13;5094384;28;20187;-63
2022/07/30 04:58:15;;;;;;;6.67;4.60;;;21.60;70.00;;;24.44;51.62;101583.31;5094496;28;20192;-63
2022/07/30 05:00:44;;;;;;;5.93;4.13;;;21.60;70.20;;;24.49;51.55;101575.34;5075856;28;20665;-64
2022/07/30 05:03:16;;;;;;;4.00;3.50;;;21.60;70.90;;;24.51;51.42;101575.09;5095421;28;20344;-62
2022/07/30 05:05:45;;;;;;;4.20;3.77;;;21.60;69.90;;;24.53;51.21;101575.69;5096008;28;20195;-64
2022/07/30 05:08:13;;;;;;;5.10;4.10;;;21.60;69.90;;;24.53;51.04;101578.38;5094408;28;20192;-63
2022/07/30 05:10:42;;;;;;;4.97;3.87;;;21.60;69.90;;;24.52;51.51;101576.72;5093830;28;20192;-63
2022/07/30 05:13:13;;;;;;;6.80;3.80;;;21.60;70.00;;;24.52;51.26;101576.72;5093722;28;20208;-63
2022/07/30 05:15:45;;;;;;;4.80;4.20;;;21.60;70.20;;;24.54;51.53;101575.41;5094793;28;20288;-63
2022/07/30 05:18:14;;;;;;;5.80;3.87;;;21.60;70.20;;;24.55;51.27;101576.25;5099159;28;20195;-63
2022/07/30 05:20:42;;;;;;;5.07;3.93;;;21.60;70.30;;;24.55;51.66;101582.44;5096580;28;20189;-63
2022/07/30 05:23:09;;;;;;;6.33;4.43;;;21.60;70.30;;;24.57;51.30;101585.69;5096918;28;20672;-63
2022/07/30 05:25:36;;;;;;;4.63;4.13;;;21.60;70.60;;;24.57;51.30;101590.28;5095468;28;20197;-63
2022/07/30 05:28:04;;;;;;;5.53;4.00;;;21.60;70.60;;;24.58;51.88;101587.31;5095215;28;20652;-63
2022/07/30 05:30:31;;;;;;;6.03;4.27;;;21.60;70.80;;;24.61;51.60;101591.41;5094197;28;20498;-61
2022/07/30 05:32:59;;;;;;;4.57;3.33;;;21.60;70.70;;;24.65;51.27;101589.88;5095446;28;20311;-61
2022/07/30 05:35:31;;;;;;;5.07;3.97;;;21.60;70.70;;;24.71;51.45;101591.56;5094770;28;20196;-64
2022/07/30 05:37:59;;;;;;;5.70;3.97;;;21.70;70.90;;;24.76;51.03;101600.56;5093419;28;20207;-65
2022/07/30 05:40:26;;;;;;;6.63;4.50;;;21.70;70.60;;;24.84;51.33;101596.66;5116222;28;20202;-61
2022/07/30 05:42:54;;;;;;;4.50;4.10;;;21.80;70.50;;;24.90;51.03;101598.34;5118357;28;20203;-62
2022/07/30 05:45:21;;;;;;;4.93;3.93;;;21.90;70.40;;;24.96;50.99;101599.22;5118202;28;20195;-63
2022/07/30 05:47:48;;;;;;;7.43;5.27;;;21.90;70.10;;;24.94;51.33;101595.97;5117790;28;20198;-63
2022/07/30 05:50:16;;;;;;;6.67;4.20;;;21.90;70.10;;;24.88;51.18;101598.59;5117998;28;20297;-64
2022/07/30 05:52:45;;;;;;;5.20;4.57;;;21.90;70.20;;;24.82;51.12;101601.44;5117088;27;20216;-63
2022/07/30 05:55:12;;;;;;;7.77;4.17;;;21.90;70.20;;;24.75;51.38;101603.47;5113909;28;20196;-63
2022/07/30 05:57:42;;;;;;;5.10;3.50;;;21.90;70.20;;;24.69;51.46;101599.06;5097229;28;20662;-64
2022/07/30 06:00:12;;;;;;;4.83;4.20;;;21.80;70.30;;;24.66;52.09;101613.03;5096928;28;20189;-64
2022/07/30 06:02:39;;;;;;;3.93;3.53;;;21.80;70.70;;;24.63;51.98;101611.63;5096665;28;20208;-63
2022/07/30 06:05:07;;;;;;;7.50;4.20;;;21.80;70.60;;;24.63;51.88;101616.19;5097437;28;20679;-64
2022/07/30 06:07:35;;;;;;;4.67;3.90;;;21.80;70.60;;;24.58;51.43;101614.25;5096962;28;20195;-63
2022/07/30 06:10:05;;;;;;;4.27;3.80;;;21.70;70.30;;;24.55;51.93;101614.75;5096528;28;20233;-63
2022/07/30 06:12:32;;;;;;;5.50;4.47;;;21.70;70.30;;;24.49;52.10;101617.59;5097316;28;20217;-64
2022/07/30 06:15:00;;;;;;;6.80;5.60;;;21.70;70.60;;;24.40;52.50;101624.44;5096883;28;20661;-63
2022/07/30 06:17:27;;;;;;;6.57;5.50;;;21.70;70.80;;;24.26;52.68;101620.44;5096563;28;20199;-61
2022/07/30 06:19:55;;;;;;;6.30;5.20;;;21.60;70.70;;;24.14;52.87;101624.03;5096891;28;20254;-63
2022/07/30 06:22:22;;;;;;;5.60;5.07;;;21.60;70.60;;;24.13;52.67;101621.56;5095937;28;20196;-64
2022/07/30 06:24:52;;;;;;;5.43;4.93;;;21.50;70.50;;;24.13;52.69;101622.38;5097266;28;20188;-64
2022/07/30 06:27:21;;;;;;;7.80;5.70;;;21.50;70.50;;;24.06;52.73;101632.47;5096198;28;20185;-64
2022/07/30 06:29:48;;;;;;;4.83;4.43;;;21.50;70.90;;;24.02;52.81;101636.69;5097364;28;20526;-64
2022/07/30 06:32:16;;;;;;;5.37;4.23;;;21.40;70.70;;;24.01;52.69;101635.03;5094274;28;20699;-63
2022/07/30 06:34:43;;;;;;;7.70;4.97;;;21.40;71.00;;;24.03;52.36;101643.69;5096164;28;20193;-64
2022/07/30 06:37:11;;;;;;;5.97;5.00;;;21.30;70.80;;;24.04;52.36;101645.31;5096086;28;20197;-64
2022/07/30 06:39:38;;;;;;;7.03;5.30;;;21.30;70.80;;;24.07;52.40;101650.25;5096380;28;20195;-64
2022/07/30 06:42:26;;;;;;;8.80;5.43;;;21.30;71.00;;;24.10;52.14;101652.44;5095614;28;20536;-63
2022/07/30 06:44:53;;;;;;;8.07;4.83;;;21.30;71.30;;;24.18;52.22;101652.06;5097436;28;20181;-63
2022/07/30 06:47:30;;;;;;;5.17;4.23;;;21.30;71.40;;;24.31;52.23;101642.06;5095040;28;20200;-63
2022/07/30 06:50:01;;;;;;;8.57;5.47;;;21.30;71.60;;;24.44;52.13;101644.47;5094311;28;20196;-63
2022/07/30 06:52:29;;;;;;;5.90;5.37;;;21.40;71.80;;;24.57;51.55;101649.50;5095751;28;20213;-62
2022/07/30 06:54:56;;;;;;;6.27;5.50;;;21.50;71.60;;;24.64;52.00;101644.78;5096631;28;20567;-64
2022/07/30 06:57:25;;;;;;;7.13;5.03;;;21.50;71.40;;;24.75;51.19;101641.16;5098679;28;20192;-63
2022/07/30 06:59:52;;;;;;;6.60;5.50;;;21.60;72.30;;;24.86;51.42;101635.72;5095733;28;20192;-63
2022/07/30 07:02:23;;;;;;;5.97;5.07;;;21.70;71.50;;;24.91;51.15;101637.69;5096495;28;20208;-63
2022/07/30 07:04:51;;;;;;;5.60;4.70;;;21.80;70.70;;;24.91;51.17;101640.38;5095755;28;20528;-63
2022/07/30 07:07:18;;;;;;;7.00;5.30;;;21.90;70.40;;;25.03;50.78;101643.78;5095549;28;20193;-63
2022/07/30 07:10:07;;;;;;;8.80;5.60;;;21.90;70.40;;;25.13;50.32;101643.94;5094707;28;20197;-63
2022/07/30 07:12:36;;;;;;;5.80;5.30;;;22.10;69.80;;;25.24;50.41;101650.28;5094760;28;20222;-62
2022/07/30 07:15:05;;;;;;;7.50;6.00;;;22.10;69.50;;;25.23;50.26;101648.63;5095522;28;20189;-63
2022/07/30 07:17:33;;;;;;;7.23;6.50;;;22.20;69.10;;;25.20;50.05;101649.94;5095489;28;20192;-63
2022/07/30 07:20:00;;;;;;;5.37;4.87;;;22.30;68.80;;;25.26;50.24;101648.16;5095922;28;20253;-63
2022/07/30 07:22:29;;;;;;;5.00;4.60;;;22.30;68.90;;;25.40;49.47;101644.03;5094846;28;20653;-63
2022/07/30 07:24:56;;;;;;;7.20;5.73;;;22.30;69.00;;;25.59;49.23;101639.97;5095125;28;20653;-64
2022/07/30 07:27:24;;;;;;;7.57;4.70;;;22.40;69.00;;;25.82;49.19;101646.97;5094924;28;20204;-63
2022/07/30 07:29:53;;;;;;;7.80;5.63;;;22.60;69.00;;;25.98;48.93;101638.00;5095435;28;20204;-64
2022/07/30 07:32:32;;;;;;;6.23;5.47;;;22.70;68.10;;;26.12;48.30;101636.56;5094648;28;20279;-63
2022/07/30 07:35:00;;;;;;;6.63;5.20;;;22.90;68.00;;;26.28;48.12;101641.00;5095957;28;20590;-63
2022/07/30 07:37:27;;;;;;;7.50;4.83;;;23.00;67.50;;;26.47;47.55;101642.25;5094824;28;20289;-64
2022/07/30 07:39:55;;;;;;;5.47;4.10;;;23.20;67.30;;;26.72;47.12;101639.75;5094873;28;20188;-63
2022/07/30 07:42:22;;;;;;;6.40;4.90;;;23.30;67.00;;;26.93;47.00;101642.63;5094411;28;20208;-64
2022/07/30 07:44:49;;;;;;;6.43;4.60;;;23.50;66.10;;;27.08;46.12;101642.72;5094975;28;20197;-64
2022/07/30 07:47:18;;;;;;;5.47;4.90;;;23.70;65.50;;;27.24;46.18;101636.31;5095006;28;20188;-64
2022/07/30 07:49:45;;;;;;;10.77;5.53;;;23.90;64.90;;;27.27;44.71;101631.19;5094821;28;20549;-63
2022/07/30 07:52:13;;;;;;;6.30;5.00;;;24.00;63.10;;;27.34;45.51;101628.25;5095329;28;20217;-64
2022/07/30 07:54:40;;;;;;;5.83;4.73;;;24.10;63.20;;;27.23;45.15;101631.97;5094394;28;20208;-64
2022/07/30 07:57:09;;;;;;;4.60;4.20;;;24.20;62.40;;;27.16;45.69;101626.00;5094361;28;20189;-64
2022/07/30 07:59:41;;;;;;;8.13;4.93;;;24.30;62.70;;;27.18;45.20;101634.66;5094582;28;20196;-64
2022/07/30 08:02:08;;;;;;;4.87;4.37;;;24.30;62.70;;;27.23;45.67;101627.41;5093172;28;20404;-64
2022/07/30 08:04:38;;;;;;;5.80;4.30;;;24.30;63.50;;;27.31;45.50;101626.09;5093252;28;20729;-64
2022/07/30 08:07:05;;;;;;;5.23;4.40;;;24.30;62.60;;;27.33;44.87;101632.03;5094167;28;20572;-63
2022/07/30 08:09:33;;;;;;;5.13;4.00;;;24.30;62.50;;;27.38;44.75;101630.22;5111544;28;20192;-64
2022/07/30 08:12:11;;;;;;;7.03;5.13;;;24.30;62.30;;;27.44;45.13;101618.31;5113406;28;20264;-64
2022/07/30 08:14:38;;;;;;;7.83;4.70;;;24.40;62.40;;;27.51;44.59;101624.28;5114280;28;20211;-63
2022/07/30 08:17:06;;;;;;;6.33;4.53;;;24.30;62.20;;;27.58;44.67;101618.63;5114100;28;20194;-63
2022/07/30 08:19:34;;;;;;;5.47;4.90;;;24.40;62.10;;;27.62;44.76;101624.34;5113995;28;20222;-63
2022/07/30 08:22:04;;;;;;;4.77;4.20;;;24.40;61.80;;;27.63;44.46;101620.53;5113805;28;20208;-64
2022/07/30 08:24:31;;;;;;;7.30;5.50;;;24.40;61.70;;;27.64;44.39;101623.00;5112614;28;20190;-64
2022/07/30 08:26:59;;;;;;;5.37;4.43;;;24.50;61.70;;;27.65;44.38;101621.09;5114221;28;20193;-63
2022/07/30 08:29:28;;;;;;;5.97;4.53;;;24.50;61.70;;;27.71;44.60;101622.75;5113799;28;20200;-63
2022/07/30 08:31:56;;;;;;;7.10;4.73;;;24.50;61.80;;;27.80;44.41;101616.53;5113619;28;20212;-64
2022/07/30 08:34:23;;;;;;;6.53;4.63;;;24.60;62.00;;;27.95;44.27;101622.00;5114052;28;20662;-64
2022/07/30 08:36:52;;;;;;;7.70;5.50;;;24.60;62.10;;;28.09;43.85;101619.59;5114256;28;20184;-64
2022/07/30 08:39:21;;;;;;;6.87;4.97;;;24.70;62.00;;;28.18;44.06;101626.09;5112714;28;20210;-64
2022/07/30 08:41:49;;;;;;;6.53;4.93;;;24.80;61.80;;;28.30;43.54;101620.41;5111516;28;20238;-64
2022/07/30 08:44:18;;;;;;;5.37;4.63;;;24.80;62.50;;;28.46;43.84;101619.31;5113885;28;20188;-64
2022/07/30 08:46:47;;;;;;;8.97;5.37;;;24.90;61.70;;;28.94;43.05;101621.47;5113908;28;20180;-64
2022/07/30 08:49:15;;;;;;;5.10;4.60;;;25.10;61.90;;;29.39;42.26;101618.63;5113821;28;20537;-64
2022/07/30 08:51:43;;;;;;;10.17;4.97;;;25.30;61.20;;;29.72;41.49;101627.16;5113341;28;20568;-63
2022/07/30 08:54:11;;;;;;;5.23;4.43;;;25.60;60.30;;;29.93;40.51;101626.00;5113621;28;20567;-63
2022/07/30 08:56:40;;;;;;;5.73;5.10;;;25.80;59.70;;;30.18;40.62;101631.22;5113636;28;20203;-64
2022/07/30 08:59:08;;;;;;;6.63;4.50;;;26.00;59.10;;;30.57;40.20;101633.94;5094846;28;20193;-63
2022/07/30 09:01:35;;;;;;;5.70;4.23;;;26.30;59.30;;;31.00;39.71;101637.63;5092856;28;20208;-62
2022/07/30 09:04:03;;;;;;;6.13;4.43;;;26.50;58.60;;;31.33;38.61;101636.69;5093377;28;20250;-63
2022/07/30 09:06:31;;;;;;;7.30;4.87;;;26.80;57.90;;;31.49;38.52;101640.88;5092993;28;20188;-62
2022/07/30 09:08:59;;;;;;;5.13;4.20;;;27.00;57.10;;;31.57;38.02;101637.47;5092688;28;20203;-63
2022/07/30 09:11:27;;;;;;;4.90;4.30;;;27.20;56.40;;;31.99;37.42;101640.19;5092702;28;20224;-63
2022/07/30 09:14:09;;;;;;;13.43;12.13;;;27.40;56.40;;;32.70;36.25;101639.06;5093894;28;20226;-63
2022/07/30 09:16:37;;;;;;;7.40;4.90;;;27.70;55.10;;;33.12;35.32;101640.72;5092155;28;20635;-63
2022/07/30 09:19:14;;;;;;;4.70;4.30;;;28.00;54.80;;;33.86;34.15;101642.16;5092829;28;20202;-63
2022/07/30 09:21:53;;;;;;;6.80;4.80;;;28.40;53.70;;;34.16;33.74;101644.25;5092814;28;20200;-64
2022/07/30 09:24:20;;;;;;;5.40;3.27;;;28.80;52.90;;;34.14;33.75;101640.97;5093117;28;20240;-64
2022/07/30 09:26:55;;;;;;;5.37;4.87;;;29.00;52.40;;;34.18;33.41;101639.25;5092950;28;20187;-64
2022/07/30 09:29:27;;;;;;;6.50;4.00;;;29.30;50.80;;;34.24;32.78;101635.28;5092985;28;20199;-64
2022/07/30 09:31:56;;;;;;;5.20;4.40;;;29.40;50.10;;;34.29;32.60;101643.34;5072185;28;20250;-64
2022/07/30 09:34:27;;;;;;;5.17;4.67;;;29.50;49.60;;;34.58;32.30;101640.19;5072517;28;20220;-63
2022/07/30 09:36:57;;;;;;;5.87;4.30;;;29.60;49.60;;;34.87;32.14;101642.44;5072732;28;20188;-63
2022/07/30 09:39:32;;;;;;;5.00;3.73;;;29.80;49.50;;;35.64;31.19;101640.78;5072084;28;20197;-63
2022/07/30 09:42:01;;;;;;;5.00;4.20;;;30.10;49.00;;;35.98;30.36;101640.84;5072475;28;20576;-64
2022/07/30 09:44:30;;;;;;;4.00;3.63;;;30.40;48.40;;;36.27;30.08;101645.66;5072544;28;20186;-64
2022/07/30 09:47:00;;;;;;;4.83;4.33;;;30.70;47.50;;;36.51;29.39;101639.66;5085733;28;20193;-63
2022/07/30 09:49:28;;;;;;;4.83;4.33;;;30.90;46.80;;;36.44;29.33;101642.88;5092421;28;20189;-64
2022/07/30 09:51:56;;;;;;;6.15;4.55;;;31.00;46.20;;;36.49;29.25;101641.94;5091810;28;20208;-64
2022/07/30 09:54:25;;;;;;;10.15;7.20;;;31.20;46.10;;;36.92;29.31;101639.84;5092665;28;20216;-64
2022/07/30 09:57:09;;;;;;;8.48;6.15;;;31.30;45.70;;;37.34;27.89;101632.53;5092690;28;20195;-64
2022/07/30 09:59:56;;;;;;;9.52;7.45;;;31.60;45.00;;;37.29;28.49;101632.72;5092416;28;20193;-64
2022/07/30 10:02:29;;;;;;;9.25;7.68;;;31.80;44.20;;;37.07;28.25;101631.06;5091496;28;20699;-64
2022/07/30 10:05:10;;;;;;;9.95;8.10;;;31.90;43.80;;;36.69;28.98;101632.97;5092286;28;20185;-63
2022/07/30 10:07:49;;;;;;;14.35;8.98;;;31.90;43.40;;;36.15;29.05;101633.72;5092299;28;20215;-62
2022/07/30 10:10:20;;;;;;;12.82;9.77;;;31.70;43.60;;;35.62;30.03;101637.56;5091984;28;20219;-62
2022/07/30 10:12:57;;;;;;;9.90;8.67;;;31.60;43.50;;;35.07;30.65;101644.63;5091875;28;20215;-62
2022/07/30 10:15:29;;;;;;;11.43;7.73;;;31.30;43.20;;;34.63;31.44;101638.16;5091061;28;20303;-63
2022/07/30 10:18:01;;;;;;;15.50;8.53;;;31.10;43.90;;;34.51;31.46;101639.81;5092266;28;20187;-62
2022/07/30 10:20:33;;;;;;;11.30;7.37;;;30.80;44.50;;;34.57;31.38;101638.56;5093478;28;20195;-62
2022/07/30 10:23:01;;;;;;;11.57;9.00;;;30.70;44.80;;;34.65;31.00;101635.09;5092245;28;20216;-63
2022/07/30 10:25:36;;;;;;;12.73;10.27;;;30.70;45.20;;;34.70;31.15;101626.75;5094618;28;20188;-63
2022/07/30 10:28:23;;;;;;;11.57;8.53;;;30.70;45.60;;;35.08;31.03;101627.09;5096077;28;20287;-63